Date,TemperatureHighF,TemperatureAvgF,TemperatureLowF,DewpointHighF,DewpointAvgF,DewpointLowF,HumidityHigh,HumidityAvg,HumidityLow,PressureMaxIn,PressureMinIn,WindSpeedMaxMPH,WindSpeedAvgMPH,GustSpeedMaxMPH,PrecipitationSumIn
2014-1-1,8.1,0.3,-5.6,-4.4,-9.1,-13.4,72,64,55,30.24,30.15,3,0,3,0.00
2014-1-2,7.9,-2.6,-11.9,-7.0,-13.1,-20.4,70,60,43,30.26,30.13,4,0,4,0.00
2014-1-3,28.4,11.9,-12.3,24.2,4.5,-20.2,84,72,64,30.14,29.20,17,2,17,0.00
2014-1-4,34.3,16.9,-1.7,30.9,8.8,-9.4,87,70,54,30.05,29.18,14,2,14,0.00
2014-1-5,-0.6,-8.1,-18.8,-9.4,-17.2,-27.6,73,64,55,30.16,30.04,13,2,13,0.00
2014-1-6,-8.0,-15.6,-21.1,-19.5,-24.5,-29.5,70,63,55,30.10,29.95,14,3,14,0.00
2014-1-7,12.0,-3.3,-15.2,-2.7,-12.3,-21.8,72,65,49,30.04,29.89,8,1,8,0.00
2014-1-8,9.3,-3.8,-12.8,-4.2,-12.2,-19.0,76,67,53,30.23,30.03,5,0,5,0.00
2014-1-9,27.1,10.5,-13.0,14.7,3.0,-19.2,83,72,55,30.20,29.66,9,1,9,0.00
2014-1-10,32.5,26.5,15.8,28.0,22.9,11.7,89,86,82,29.66,29.25,8,1,8,0.00
2014-1-11,34.0,27.5,21.4,27.7,23.5,18.4,91,85,72,29.46,29.24,12,2,12,0.00
2014-1-12,45.0,34.5,20.8,33.1,28.0,17.8,89,78,61,29.40,29.11,8,0,8,0.00
2014-1-13,32.7,29.3,24.4,28.4,22.7,17.7,86,76,61,29.46,29.27,13,2,13,0.00
2014-1-14,28.2,21.0,6.6,25.5,14.5,0.4,90,76,58,29.91,29.23,10,1,10,0.00
2014-1-15,27.1,13.0,-0.6,22.4,6.4,-5.8,84,75,58,29.93,29.18,13,2,13,0.00
2014-1-16,34.3,19.5,6.4,31.2,11.6,-1.8,89,71,52,29.67,29.14,20,6,24,0.00
2014-1-17,17.2,7.9,0.1,4.7,-0.6,-6.2,77,68,54,29.83,29.53,10,2,10,0.00
2014-1-18,29.1,17.9,11.1,17.0,11.1,4.7,86,75,59,29.74,29.28,13,4,13,0.02
2014-1-19,42.4,30.6,16.9,29.9,23.5,12.1,85,75,59,29.50,29.20,16,5,16,0.02
2014-1-20,29.3,17.0,-3.8,24.5,8.1,-14.6,84,68,54,30.21,29.48,12,3,12,0.00
2014-1-21,10.0,-2.0,-15.3,1.2,-11.9,-23.0,75,62,47,30.26,29.75,8,1,8,0.00
2014-1-22,9.1,3.6,-8.9,3.1,-5.5,-17.5,78,66,52,30.28,29.72,21,4,21,0.00
2014-1-23,3.7,-7.4,-16.6,-3.7,-16.1,-23.5,75,65,54,30.51,29.95,16,3,16,0.00
2014-1-24,37.6,25.2,3.7,30.9,17.3,-4.0,89,72,58,29.95,29.26,27,5,27,0.00
2014-1-25,28.0,9.1,2.8,14.8,-4.4,-8.7,76,54,43,29.72,29.28,20,4,20,0.00
2014-1-26,21.9,8.1,-7.1,12.4,0.1,-15.7,81,70,51,29.87,29.15,30,5,30,0.00
2014-1-27,-1.7,-9.6,-15.0,-15.0,-19.8,-23.9,68,60,51,30.19,29.87,17,4,17,0.00
2014-1-28,5.5,-6.5,-16.1,-7.5,-15.2,-22.7,73,65,53,30.16,29.87,16,4,16,0.00
2014-1-29,31.1,13.1,-7.1,18.6,2.8,-14.2,74,64,46,29.87,29.31,12,3,12,0.00
2014-1-30,27.0,16.7,-4.4,19.4,8.0,-12.6,86,69,52,29.85,29.21,14,2,14,0.00
2014-1-31,16.9,0.8,-12.5,0.6,-8.8,-18.5,76,64,47,29.94,29.77,8,1,8,0.00
2014-2-1,26.8,11.7,-1.1,14.2,2.6,-8.8,74,67,54,30.00,29.68,15,3,15,0.00
2014-2-2,21.0,3.0,-11.2,5.6,-5.9,-16.9,78,67,49,30.08,29.96,7,1,7,0.00
2014-2-3,25.3,8.4,-3.1,9.9,-0.0,-8.3,82,69,50,30.14,29.93,8,1,8,0.00
2014-2-4,16.7,3.9,-4.9,3.4,-5.4,-10.3,81,66,49,30.24,30.13,7,1,7,0.00
2014-2-5,10.6,2.0,-6.2,-2.0,-8.3,-13.2,71,62,53,30.30,30.23,10,3,10,0.00
2014-2-6,10.0,-2.2,-12.5,-3.3,-10.7,-18.4,75,67,52,30.25,30.00,19,4,19,0.00
2014-2-7,132.3,3.6,-6.3,99.9,-6.5,-13.0,75,63,46,30.00,29.91,18,3,18,0.00
2014-2-8,28.2,9.0,-6.3,12.3,0.6,-11.9,80,69,49,29.94,29.84,7,0,7,0.00
2014-2-9,11.7,2.1,-7.8,1.1,-7.2,-15.5,77,65,48,30.18,29.94,15,3,15,0.00
2014-2-10,12.0,-2.5,-11.9,-3.9,-12.3,-19.0,73,63,47,30.26,30.18,10,2,10,0.00
2014-2-11,19.6,2.9,-16.2,5.9,-6.6,-22.6,76,65,48,30.23,29.81,14,3,14,0.00
2014-2-12,37.9,22.8,14.2,21.4,13.9,5.9,81,69,49,29.87,29.56,9,1,9,0.00
2014-2-13,32.7,17.9,4.1,26.4,10.8,-2.6,84,74,61,29.56,29.20,23,6,23,0.00
2014-2-14,20.5,8.0,-0.2,5.6,-1.1,-6.5,77,67,50,29.82,29.52,11,2,11,0.00
2014-2-15,60.3,13.3,-2.2,52.3,6.1,-7.9,79,73,60,29.82,29.53,10,1,10,0.00
2014-2-16,27.0,18.6,5.5,14.3,9.4,1.0,83,68,49,30.01,29.73,15,4,15,0.04
2014-2-17,40.6,25.4,16.7,27.9,18.4,11.9,86,75,58,29.74,29.43,16,2,16,0.00
2014-2-18,51.1,31.4,14.7,32.2,22.7,11.6,89,72,44,29.54,29.31,9,2,9,0.12
2014-2-19,48.7,33.0,19.0,32.4,25.2,15.5,89,74,52,29.61,29.43,13,2,13,0.00
2014-2-20,40.6,33.0,15.3,34.6,28.3,12.1,92,83,73,29.44,29.07,9,0,9,0.06
2014-2-21,21.4,14.1,7.3,12.1,7.4,2.4,87,75,62,29.56,29.12,0,0,0,0.00
2014-2-22,20.8,11.1,2.3,7.6,2.8,-3.0,78,69,54,29.92,29.56,8,1,8,0.00
2014-2-23,22.3,10.1,-0.2,8.1,1.3,-5.5,78,68,51,30.06,29.92,20,6,20,0.00
2014-2-24,21.7,8.3,-3.5,4.2,-1.6,-9.4,76,65,44,30.12,30.04,12,4,12,0.00
2014-2-25,11.5,0.7,-9.6,-1.4,-9.0,-16.5,76,64,48,30.14,30.04,14,4,14,0.00
2014-2-26,24.4,5.0,-11.6,10.8,-6.0,-19.6,73,61,50,30.13,29.40,24,6,24,0.00
2014-2-27,12.0,-2.7,-12.8,-10.8,-18.2,-24.1,60,47,34,29.99,29.71,10,1,10,0.00
2014-2-28,28.8,8.0,-9.2,11.8,-3.5,-19.7,70,59,47,29.95,29.65,10,2,10,0.00
2014-3-1,9.5,1.0,-6.2,-1.5,-12.2,-18.9,67,54,37,30.30,29.94,14,2,14,0.00
2014-3-2,9.7,-3.8,-16.6,-8.5,-17.3,-27.2,64,52,41,30.34,30.24,12,2,12,0.00
2014-3-3,24.6,4.4,-13.9,2.7,-7.7,-21.4,70,58,37,30.31,30.00,8,1,8,0.00
2014-3-4,30.0,17.1,8.6,12.6,6.4,0.4,75,63,45,30.07,29.92,9,2,9,0.00
2014-3-5,33.4,20.1,10.0,14.0,9.0,4.3,78,63,43,30.21,30.06,13,2,13,0.02
2014-3-6,37.2,23.8,10.9,22.5,15.1,4.0,81,70,53,30.11,29.56,17,4,17,0.00
2014-3-7,37.9,30.7,23.9,30.7,23.5,15.9,84,75,60,29.96,29.53,10,2,10,0.00
2014-3-8,37.9,23.8,14.2,18.8,13.2,8.3,78,65,42,30.10,29.94,10,2,10,0.00
2014-3-9,55.2,35.2,13.8,33.7,24.5,8.2,81,67,44,29.93,29.42,15,3,15,0.00
2014-3-10,58.6,43.3,33.4,39.1,33.2,28.4,86,69,45,29.49,29.37,11,2,11,0.00
2014-3-11,48.7,39.8,30.2,34.4,27.3,17.7,84,62,36,29.79,29.47,11,2,11,0.04
2014-3-12,36.3,26.6,17.4,19.5,12.7,8.0,71,56,39,29.91,29.79,10,3,10,0.00
2014-3-13,56.8,39.5,19.9,36.4,28.9,12.0,84,67,45,29.79,29.29,8,2,8,0.00
2014-3-14,46.8,38.3,27.1,34.9,29.0,17.1,81,70,54,29.74,29.27,16,6,16,0.00
2014-3-15,37.9,28.1,20.5,19.1,13.7,5.0,74,56,38,30.17,29.73,8,2,8,0.00
2014-3-16,39.0,23.8,11.1,14.4,7.1,-1.4,67,49,34,30.25,29.77,11,3,11,0.00
2014-3-17,48.2,33.1,23.7,28.9,22.6,14.4,77,66,47,29.78,29.32,11,5,11,0.00
2014-3-18,44.6,34.1,29.1,27.9,25.2,22.6,87,70,50,29.57,29.37,13,3,13,0.02
2014-3-19,43.3,33.0,27.0,28.1,24.6,21.0,87,72,51,29.75,29.56,16,2,16,0.10
2014-3-20,53.8,37.6,20.8,35.4,27.3,17.8,91,69,43,29.79,29.65,7,1,7,0.00
2014-3-21,51.1,34.9,22.3,36.4,27.1,12.6,85,74,56,29.94,29.50,19,4,19,0.00
2014-3-22,124.3,17.5,8.8,99.9,5.2,0.2,71,59,43,30.28,29.94,14,4,14,0.00
2014-3-23,33.1,19.4,6.1,13.5,6.7,-1.0,75,59,41,30.29,30.10,12,2,12,0.00
2014-3-24,37.6,25.8,16.0,28.3,15.0,8.9,76,64,41,30.13,29.88,16,3,16,0.00
2014-3-25,32.7,19.8,9.7,16.2,4.8,-2.9,77,52,36,30.08,29.88,16,4,16,0.00
2014-3-26,48.2,30.3,11.5,26.8,16.9,4.1,76,59,40,29.94,29.33,16,5,16,0.00
2014-3-27,41.5,37.8,31.8,37.0,33.6,26.7,90,85,58,29.53,29.22,11,1,11,0.39
2014-3-28,44.2,34.0,25.3,27.2,21.4,13.3,83,61,39,30.02,29.52,8,2,9,0.00
2014-3-29,51.6,35.4,17.8,26.9,19.7,12.1,81,56,33,30.06,29.82,10,2,10,0.00
2014-3-30,67.8,49.9,35.4,45.1,36.6,26.9,76,62,43,29.82,29.51,13,3,13,0.00
2014-3-31,61.0,48.7,32.2,49.2,39.4,26.9,84,70,60,29.51,29.10,22,5,22,0.02
2014-4-1,40.8,30.7,21.6,29.3,22.1,14.6,89,71,54,29.89,29.18,25,6,25,0.00
2014-4-2,49.6,34.6,19.2,24.9,20.6,13.8,80,59,36,29.96,29.81,14,3,14,0.00
2014-4-3,38.7,35.0,29.5,30.8,27.4,21.9,90,75,51,29.83,29.53,17,3,17,0.00
2014-4-4,46.6,35.0,26.4,28.6,25.4,22.4,91,70,44,29.83,29.47,17,2,17,0.29
2014-4-5,56.3,40.1,21.7,38.7,30.0,18.5,90,69,50,29.89,29.71,11,1,11,0.00
2014-4-6,69.1,51.2,40.1,46.8,37.5,30.7,77,61,43,29.71,29.56,11,1,11,0.00
2014-4-7,63.1,49.9,35.4,46.6,36.6,28.9,90,63,39,29.61,29.52,14,1,14,0.00
2014-4-8,55.9,43.4,33.3,33.4,28.5,24.9,75,57,34,29.77,29.59,18,2,18,0.00
2014-4-9,75.7,54.0,31.1,44.5,35.7,24.6,80,54,31,29.74,29.26,15,3,15,0.00
2014-4-10,63.5,54.3,40.6,43.4,29.6,20.3,61,41,20,29.71,29.30,18,5,18,0.00
2014-4-11,69.6,53.0,37.9,40.3,33.2,26.5,72,50,28,29.73,29.66,9,1,9,0.00
2014-4-12,65.3,53.2,45.3,47.4,40.1,31.5,79,62,44,29.67,29.45,16,5,16,0.02
2014-4-13,46.9,41.5,34.7,41.1,33.6,22.2,99,74,60,29.70,29.50,13,3,13,0.00
2014-4-14,41.2,32.6,25.7,22.3,13.0,6.1,63,46,26,29.89,29.70,15,5,15,0.00
2014-4-15,48.0,32.3,17.4,14.1,10.3,7.3,65,42,22,29.95,29.80,13,2,13,0.00
2014-4-16,40.5,35.1,30.2,31.0,23.6,14.1,89,64,43,29.81,29.62,18,6,18,0.43
2014-4-17,48.7,35.9,28.0,31.2,26.5,21.4,90,70,47,30.09,29.73,10,2,10,0.14
2014-4-18,57.7,42.0,23.9,36.1,27.9,19.9,87,61,36,30.13,29.92,17,4,17,0.00
2014-4-19,71.4,54.8,44.4,51.5,40.3,27.9,84,59,42,29.93,29.72,18,5,18,0.04
2014-4-20,82.0,64.0,48.0,51.7,47.6,39.8,91,61,23,29.82,29.68,9,0,9,0.10
2014-4-21,70.5,60.1,45.3,56.6,44.2,27.6,90,60,33,29.85,29.63,18,4,18,0.45
2014-4-22,63.3,49.4,37.0,34.5,29.9,25.7,73,49,30,29.92,29.80,15,2,15,0.00
2014-4-23,48.7,43.1,40.5,37.5,31.9,25.4,83,66,49,29.88,29.66,20,6,20,0.29
2014-4-24,48.7,43.2,36.7,43.3,39.2,33.5,91,86,78,29.68,29.43,18,3,18,0.77
2014-4-25,68.5,50.7,31.5,46.7,38.3,29.1,93,66,34,29.69,29.48,14,3,14,0.00
2014-4-26,58.8,48.1,36.7,38.7,32.8,29.7,77,57,37,29.79,29.62,17,5,17,0.12
2014-4-27,47.3,41.8,39.0,40.4,36.8,34.3,91,83,65,29.66,29.32,25,8,25,1.77
2014-4-28,44.8,43.1,41.2,40.8,39.2,37.3,91,86,81,29.44,29.34,21,7,21,1.00
2014-4-29,42.6,38.0,35.2,37.6,34.6,32.3,90,87,80,29.54,29.40,14,4,14,0.67
2014-4-30,46.9,41.2,35.8,39.7,36.5,33.1,92,84,72,29.54,29.50,10,3,10,0.04
2014-5-1,51.4,44.3,38.5,41.4,37.9,35.2,89,78,65,29.61,29.48,11,3,11,0.02
2014-5-2,65.3,51.2,40.6,46.1,40.6,34.9,86,69,44,29.61,29.36,16,3,16,0.00
2014-5-3,63.5,51.5,39.7,41.4,34.8,30.6,78,55,31,29.73,29.48,110,4,110,0.00
2014-5-4,65.1,51.0,36.9,33.2,29.3,26.7,68,46,24,29.90,29.73,11,2,11,0.00
2014-5-5,73.2,60.0,49.3,39.0,34.2,29.9,53,39,25,29.76,29.66,12,2,12,0.00
2014-5-6,70.5,57.8,45.1,38.9,36.3,32.5,66,46,29,29.75,29.53,20,6,20,0.00
2014-5-7,69.1,60.4,52.7,50.1,43.8,36.5,78,55,46,29.56,29.39,16,6,16,0.10
2014-5-8,76.3,58.7,51.6,60.6,52.8,47.7,92,82,55,29.56,29.27,12,2,12,1.14
2014-5-9,61.5,52.3,42.6,56.9,44.8,37.2,94,77,51,29.58,29.26,20,6,20,0.00
2014-5-10,78.1,57.1,36.5,53.8,44.6,33.6,92,67,36,29.65,29.53,17,3,17,0.12
2014-5-11,74.8,59.9,45.9,57.5,51.7,43.1,93,76,51,29.67,29.51,13,1,13,0.31
2014-5-12,60.1,56.6,48.9,58.0,53.5,45.5,93,89,80,29.59,29.43,12,1,12,0.41
2014-5-13,55.2,49.4,41.0,45.6,39.4,33.1,89,69,47,29.95,29.58,16,4,16,0.00
2014-5-14,67.1,52.1,35.8,45.0,33.7,-26.2,88,54,2,29.99,29.89,10,2,10,0.00
2014-5-15,53.2,46.2,40.6,32.6,29.8,27.2,66,53,39,29.95,29.87,11,1,11,0.00
2014-5-16,61.3,49.3,38.5,34.5,28.4,23.5,75,47,26,29.89,29.80,8,1,8,0.00
2014-5-17,72.5,56.1,36.7,40.8,32.4,27.1,69,44,21,29.83,29.74,12,2,12,0.00
2014-5-18,80.4,64.1,46.0,47.6,37.5,29.0,61,39,24,29.85,29.72,11,2,11,0.00
2014-5-19,60.6,55.3,52.3,51.8,46.7,37.3,91,75,42,29.77,29.51,14,4,14,1.10
2014-5-20,86.2,64.5,48.0,62.9,55.1,45.5,93,74,37,29.65,29.51,5,0,5,0.00
2014-5-21,70.2,60.5,50.5,56.5,47.9,42.4,89,64,48,29.90,29.61,14,2,14,0.00
2014-5-22,76.3,61.1,44.4,50.9,44.4,40.1,86,58,33,29.97,29.89,11,0,11,0.00
2014-5-23,86.5,67.1,45.3,53.5,46.3,40.6,87,52,27,30.00,29.87,7,0,7,0.00
2014-5-24,88.7,72.6,58.3,54.6,47.5,42.5,58,43,26,29.92,29.78,8,0,8,0.00
2014-5-25,88.0,72.5,55.2,61.4,54.6,43.4,72,54,39,29.83,29.66,10,1,10,0.00
2014-5-26,91.2,75.7,64.0,68.9,63.6,58.9,87,69,42,29.69,29.61,10,1,10,0.10
2014-5-27,75.9,69.1,61.7,67.7,63.4,57.5,92,83,64,29.75,29.63,8,0,8,0.20
2014-5-28,90.3,72.0,56.3,64.8,57.1,52.5,90,63,35,29.84,29.74,8,0,8,0.00
2014-5-29,91.9,73.4,52.7,57.1,50.3,44.2,90,51,21,29.89,29.79,11,1,11,0.00
2014-5-30,95.7,80.4,61.5,67.9,58.6,44.5,72,49,34,29.89,29.76,13,1,13,0.00
2014-5-31,95.0,76.4,66.9,68.4,62.9,54.0,90,65,40,29.82,29.64,11,1,11,1.49
2014-6-1,78.3,69.0,64.6,67.7,64.4,61.2,93,86,69,29.67,29.49,9,0,9,2.41
2014-6-2,85.8,71.3,61.3,68.3,61.2,52.0,93,72,47,29.63,29.43,24,4,24,0.02
2014-6-3,84.0,68.4,54.0,58.4,54.3,49.3,87,63,38,29.75,29.60,14,1,14,0.00
2014-6-4,91.9,73.4,57.7,60.8,55.4,51.5,87,58,31,29.66,29.58,6,0,6,0.00
2014-6-5,85.3,69.9,61.5,63.1,57.7,54.3,84,67,42,29.69,29.60,12,1,12,0.02
2014-6-6,95.4,72.8,56.3,67.8,58.7,53.4,92,66,28,29.72,29.64,114,0,114,0.00
2014-6-7,66.0,59.1,51.1,60.2,54.1,48.0,89,84,71,29.84,29.65,10,0,10,0.57
2014-6-8,83.1,64.0,46.0,60.6,47.2,43.2,94,61,27,29.90,29.80,10,0,10,0.00
2014-6-9,78.4,65.3,57.6,55.5,51.3,46.7,81,62,42,29.83,29.73,8,0,8,0.04
2014-6-10,86.5,69.3,52.0,60.2,53.5,48.1,90,61,33,29.74,29.61,10,1,10,0.00
2014-6-11,91.6,75.3,59.4,62.4,57.3,51.7,82,57,34,29.65,29.40,16,0,16,0.12
2014-6-12,66.7,61.1,52.9,61.9,49.3,44.1,87,66,49,29.75,29.43,21,3,21,0.06
2014-6-13,86.7,67.8,48.7,55.8,47.6,42.7,83,53,28,29.81,29.64,7,0,7,0.00
2014-6-14,67.3,61.8,58.3,59.1,52.9,47.0,89,73,49,29.71,29.41,13,2,13,1.37
2014-6-15,82.6,68.0,57.7,64.8,57.6,54.2,93,72,43,29.60,29.21,22,3,22,1.18
2014-6-16,91.4,71.5,58.8,66.0,59.5,53.0,85,68,39,29.66,29.40,32,2,32,0.53
2014-6-17,94.3,76.4,61.5,67.7,63.0,56.6,86,65,40,29.61,29.44,8,0,8,0.04
2014-6-18,89.2,77.4,68.2,71.8,66.9,64.3,92,72,49,29.68,29.53,16,3,16,0.02
2014-6-19,79.5,69.7,65.1,68.0,64.9,62.9,93,85,67,29.84,29.58,20,4,20,5.28
2014-6-20,92.5,78.5,66.0,71.0,64.9,60.4,94,67,36,29.73,29.58,9,0,9,0.00
2014-6-21,91.8,78.8,65.1,67.0,61.0,55.9,88,58,34,29.69,29.58,7,0,7,0.00
2014-6-22,87.1,73.9,64.2,71.4,62.8,56.8,85,69,50,29.67,29.56,7,0,7,0.00
2014-6-23,88.9,75.5,63.5,70.6,62.4,58.3,93,67,42,29.65,29.57,7,0,7,0.00
2014-6-24,90.3,75.6,61.9,67.7,60.8,57.6,89,63,38,29.71,29.64,7,0,7,0.00
2014-6-25,78.6,67.6,58.8,61.9,57.6,53.7,84,71,53,29.83,29.71,4,0,4,0.00
2014-6-26,88.2,73.2,57.4,69.5,63.0,53.9,92,72,52,29.82,29.63,10,2,10,0.00
2014-6-27,88.9,77.0,68.5,71.0,67.3,64.2,87,73,54,29.65,29.52,10,1,10,0.00
2014-6-28,89.4,76.4,69.6,77.4,69.2,64.2,89,79,60,29.56,29.42,9,1,9,0.59
2014-6-29,91.8,76.8,62.4,69.8,64.0,59.4,91,68,37,29.52,29.44,13,1,13,0.06
2014-6-30,83.5,72.9,66.0,67.1,60.4,52.2,85,66,43,29.48,29.30,9,1,9,0.00
2014-7-1,78.6,66.8,58.1,62.0,56.1,49.9,80,69,51,29.61,29.30,10,2,10,0.00
2014-7-2,79.7,65.8,55.0,54.2,49.3,44.6,86,59,32,29.86,29.61,7,0,7,0.00
2014-7-3,85.8,71.0,56.1,55.0,49.6,46.2,78,51,28,29.97,29.86,5,0,5,0.00
2014-7-4,88.3,72.7,54.5,58.8,53.8,47.9,80,54,34,30.03,29.85,9,0,9,0.00
2014-7-5,91.0,78.0,66.0,69.2,63.2,55.5,77,62,46,29.88,29.63,9,1,9,0.00
2014-7-6,94.6,79.4,69.4,76.4,67.4,58.9,93,70,38,29.65,29.45,16,1,16,0.10
2014-7-7,92.5,75.0,63.0,69.4,62.7,57.9,89,68,40,29.55,29.39,9,0,9,0.53
2014-7-8,80.6,70.3,60.8,61.5,56.0,50.7,87,63,40,29.68,29.43,10,1,10,0.00
2014-7-9,87.1,71.8,55.9,60.2,54.4,50.4,84,58,32,29.78,29.68,4,0,4,0.00
2014-7-10,92.5,76.1,57.4,67.5,59.9,52.9,87,60,37,29.82,29.71,6,0,6,0.00
2014-7-11,86.7,74.9,66.0,71.7,65.4,59.3,90,73,58,29.78,29.68,13,1,13,0.00
2014-7-12,78.6,72.7,66.0,71.3,67.4,60.3,92,84,70,29.80,29.69,4,0,4,0.08
2014-7-13,83.8,71.8,61.3,62.9,55.8,47.0,92,61,34,29.75,29.65,10,1,10,0.00
2014-7-14,68.2,62.5,57.7,55.0,50.1,46.3,77,65,48,29.82,29.65,8,1,8,0.08
2014-7-15,76.6,64.7,55.2,53.7,50.6,49.2,82,62,40,29.85,29.77,7,0,7,0.00
2014-7-16,86.9,68.7,52.9,59.7,51.9,47.4,89,59,30,29.84,29.76,5,0,5,0.00
2014-7-17,90.0,72.0,55.0,62.4,55.6,50.6,87,60,35,29.82,29.75,4,0,4,0.00
2014-7-18,85.8,72.7,60.1,63.2,58.1,53.0,81,62,45,29.80,29.70,9,0,9,0.00
2014-7-19,83.1,73.8,66.0,67.0,61.8,57.9,78,67,53,29.71,29.64,8,0,8,0.08
2014-7-20,92.5,80.3,70.0,71.2,66.0,62.8,80,63,44,29.64,29.57,10,0,10,0.00
2014-7-21,98.2,84.6,72.3,77.8,72.0,65.4,82,67,51,29.67,29.54,11,1,11,0.00
2014-7-22,88.0,79.8,68.5,75.5,65.2,55.0,89,63,39,29.93,29.55,18,0,18,0.00
2014-7-23,86.7,73.9,58.8,60.5,55.3,50.2,84,55,34,30.02,29.90,3,0,3,0.00
2014-7-24,90.7,72.8,56.5,63.7,58.5,52.9,90,64,36,29.93,29.59,7,0,7,0.00
2014-7-25,87.6,75.3,64.2,71.3,65.3,57.8,89,72,56,29.70,29.51,9,0,9,0.51
2014-7-26,92.3,79.3,35.4,73.5,66.5,19.1,91,67,44,29.61,29.53,9,0,9,0.06
2014-7-27,81.7,71.0,29.1,60.9,58.1,14.1,79,65,47,29.89,29.56,8,1,8,0.00
2014-7-28,82.8,71.0,62.8,61.8,56.3,50.7,83,62,38,29.97,29.88,5,0,5,0.00
2014-7-29,84.7,70.7,57.0,60.7,56.0,53.1,87,62,39,29.90,29.79,7,1,7,0.00
2014-7-30,87.4,72.0,57.6,63.6,57.3,53.1,87,63,37,29.86,29.78,6,0,6,0.00
2014-7-31,89.4,73.4,57.7,65.0,57.9,53.9,88,62,34,29.82,29.75,8,0,8,0.00
2014-8-1,92.7,74.5,59.5,67.7,60.0,55.7,88,64,34,29.84,29.77,6,0,6,0.00
2014-8-2,96.1,76.3,61.2,67.9,62.1,56.2,90,65,34,29.89,29.82,6,0,6,0.00
2014-8-3,97.0,78.5,62.2,70.0,63.6,59.0,91,64,35,29.89,29.78,23,0,23,0.00
2014-8-4,84.9,74.8,66.2,68.9,63.8,57.8,88,70,50,29.84,29.78,5,0,5,0.00
2014-8-5,88.9,73.4,60.6,65.7,59.9,56.4,90,66,38,29.89,29.82,6,0,6,0.00
2014-8-6,90.1,73.9,57.9,65.5,59.8,55.0,92,65,38,29.86,29.79,7,0,7,0.00
2014-8-7,90.3,74.9,60.1,66.5,59.8,56.8,92,63,35,29.85,29.76,7,0,7,0.00
2014-8-8,91.8,76.1,64.8,66.1,60.6,56.4,81,61,36,29.87,29.79,8,0,8,0.00
2014-8-9,84.7,73.9,65.5,65.0,61.1,58.6,81,66,46,29.88,29.80,8,0,8,0.00
2014-8-10,91.0,76.0,67.3,68.2,63.6,60.0,88,67,42,29.83,29.71,5,0,5,0.06
2014-8-11,81.3,71.2,64.0,66.6,60.3,54.9,92,71,42,29.82,29.68,10,0,10,0.10
2014-8-12,82.9,69.8,56.1,60.6,54.5,50.2,92,62,34,29.85,29.76,8,0,8,0.00
2014-8-13,88.7,74.0,59.9,64.4,58.6,54.6,84,61,40,29.85,29.79,4,0,4,0.00
2014-8-14,90.3,72.9,58.8,61.8,56.2,50.5,81,58,36,29.90,29.74,8,0,8,0.00
2014-8-15,91.6,76.9,64.2,68.8,63.2,56.3,82,64,45,29.76,29.62,5,0,5,0.00
2014-8-16,92.5,76.6,64.6,72.0,66.8,61.3,90,74,47,29.68,29.60,3,0,3,0.00
2014-8-17,87.6,74.5,69.1,74.6,68.9,66.3,91,83,62,29.73,29.60,7,0,7,1.37
2014-8-18,92.5,75.8,66.7,74.9,66.8,61.5,95,77,44,29.61,29.41,11,0,11,0.12
2014-8-19,85.6,72.4,63.0,68.3,63.9,60.6,94,77,52,29.55,29.42,7,0,7,0.27
2014-8-20,92.1,76.0,62.4,70.5,66.0,60.1,94,74,47,29.63,29.55,6,0,6,0.00
2014-8-21,92.5,79.3,70.3,76.7,71.2,65.8,93,77,58,29.64,29.50,8,0,8,0.20
2014-8-22,82.0,74.3,68.2,71.1,68.6,64.8,94,83,68,29.77,29.61,0,0,0,0.00
2014-8-23,82.0,72.4,66.2,72.6,68.2,63.8,94,87,72,29.76,29.64,7,0,7,0.00
2014-8-24,94.8,81.1,72.7,76.4,72.2,68.4,91,76,54,29.66,29.54,8,1,8,0.00
2014-8-25,85.1,73.2,63.7,68.4,60.6,55.8,93,67,39,29.84,29.62,7,0,7,0.00
2014-8-26,79.7,66.9,55.4,57.1,53.2,49.3,81,64,41,29.99,29.83,57,0,57,0.00
2014-8-27,83.5,71.1,58.8,60.6,57.4,53.7,85,64,42,30.00,29.85,3,0,3,0.00
2014-8-28,74.5,66.8,59.7,64.8,61.0,55.1,90,82,65,29.89,29.64,8,1,8,0.02
2014-8-29,87.6,73.3,66.7,74.8,67.9,63.6,93,84,63,29.64,29.48,5,0,5,0.29
2014-8-30,84.7,73.1,66.4,67.6,65.0,62.8,93,78,52,29.64,29.51,1,0,1,0.14
2014-8-31,90.5,73.3,61.7,72.1,65.3,59.1,94,78,53,29.65,29.37,57,1,57,1.16
2014-9-1,81.1,70.8,63.0,66.6,61.1,56.3,93,74,46,29.58,29.37,7,0,7,0.18
2014-9-2,85.1,70.3,59.5,63.1,57.2,53.1,88,67,35,29.67,29.57,6,0,6,0.00
2014-9-3,83.1,70.0,59.5,71.8,63.8,54.4,92,81,63,29.66,29.43,8,0,8,0.16
2014-9-4,92.8,77.6,66.9,77.8,70.6,56.8,91,80,58,29.67,29.37,12,0,12,0.02
2014-9-5,67.8,61.4,53.2,56.8,51.0,47.1,82,69,54,29.95,29.66,6,0,6,0.00
2014-9-6,83.1,64.8,49.6,59.2,52.0,46.2,89,66,38,29.96,29.89,8,0,8,0.00
2014-9-7,82.2,66.4,51.3,57.6,51.3,47.1,87,62,35,29.92,29.76,7,0,7,0.00
2014-9-8,80.4,67.2,57.6,61.9,55.4,50.5,79,67,49,29.77,29.60,7,0,7,0.00
2014-9-9,82.8,68.3,58.1,69.3,62.1,55.2,92,81,63,29.63,29.48,6,0,6,0.10
2014-9-10,66.9,55.7,47.7,64.0,50.8,40.5,91,84,74,29.88,29.42,8,0,8,0.02
2014-9-11,61.9,51.5,43.0,45.0,39.5,36.4,84,65,42,30.14,29.88,5,0,5,0.00
2014-9-12,61.2,49.9,41.2,43.7,38.4,31.5,84,67,37,30.19,30.11,6,0,6,0.00
2014-9-13,69.1,51.5,34.0,46.2,38.0,31.1,91,64,34,30.11,29.90,7,0,7,0.00
2014-9-14,69.6,58.2,48.0,49.2,42.8,39.0,81,59,35,29.92,29.85,8,1,8,0.00
2014-9-15,66.4,55.4,43.0,50.5,43.4,37.6,87,66,37,30.01,29.89,4,0,4,0.08
2014-9-16,75.0,57.0,37.9,51.2,43.8,35.0,91,65,37,29.98,29.76,4,0,4,0.00
2014-9-17,82.0,65.9,54.9,57.3,51.7,46.9,84,62,39,29.77,29.69,4,0,4,0.00
2014-9-18,81.3,63.1,47.8,60.1,52.1,44.8,90,70,41,29.85,29.73,5,0,5,0.00
2014-9-19,82.9,68.2,57.4,66.8,59.1,51.3,86,73,55,29.75,29.40,11,0,11,0.00
2014-9-20,80.8,68.0,56.3,66.8,59.1,51.1,91,75,42,29.64,29.43,8,1,8,0.49
2014-9-21,69.8,59.2,52.0,52.1,48.8,46.7,84,70,48,29.99,29.62,9,1,9,0.00
2014-9-22,79.5,60.6,45.0,56.8,49.6,42.2,93,70,40,30.03,29.89,5,0,5,0.00
2014-9-23,80.2,63.1,48.0,59.0,51.2,44.9,90,68,42,29.98,29.87,7,0,7,0.00
2014-9-24,66.2,62.4,59.0,56.7,53.7,50.4,80,73,66,29.93,29.87,6,0,6,0.04
2014-9-25,85.8,69.0,59.2,65.0,58.7,54.6,86,71,49,29.96,29.89,4,0,4,0.00
2014-9-26,85.8,70.1,55.9,62.2,57.8,52.4,89,68,43,29.94,29.84,8,0,8,0.00
2014-9-27,87.8,72.3,61.5,64.8,59.5,56.1,83,66,40,29.90,29.82,8,0,8,0.00
2014-9-28,88.5,71.5,56.5,65.5,58.1,53.0,90,65,38,29.89,29.77,7,0,7,0.00
2014-9-29,63.7,58.0,46.0,59.4,50.7,41.2,86,77,65,29.90,29.76,5,0,5,0.00
2014-9-30,61.9,50.9,42.6,47.4,43.1,38.7,87,75,58,29.87,29.59,10,2,10,0.00
2014-10-1,59.9,55.3,50.9,55.9,50.7,45.3,91,85,77,29.63,29.52,6,0,6,0.39
2014-10-2,62.4,55.5,48.7,57.8,53.0,47.1,94,91,85,29.62,29.49,3,0,3,0.94
2014-10-3,50.7,45.7,39.9,47.3,35.4,27.1,95,69,46,29.63,29.50,20,4,20,0.00
2014-10-4,54.5,43.5,35.4,35.4,31.3,27.6,77,63,44,29.61,29.47,10,2,13,0.00
2014-10-5,52.9,41.6,32.9,38.0,32.5,27.4,84,71,53,29.47,29.32,9,0,9,0.00
2014-10-6,64.2,46.4,32.9,44.0,36.6,30.5,91,72,41,29.34,29.20,16,1,18,0.00
2014-10-7,62.4,51.6,43.5,46.2,38.8,32.1,85,63,38,29.64,29.25,22,1,22,0.00
2014-10-8,61.9,47.6,37.4,41.6,33.6,28.8,85,61,33,29.87,29.64,12,1,12,0.00
2014-10-9,57.0,43.7,31.3,37.8,31.3,25.8,84,64,40,29.99,29.86,6,0,6,0.00
2014-10-10,56.8,42.2,29.3,42.4,31.8,26.1,90,69,42,30.04,29.95,6,0,6,0.00
2014-10-11,63.3,44.1,27.9,41.7,31.7,24.9,90,66,36,30.02,29.75,7,0,7,0.00
2014-10-12,66.2,52.7,41.2,46.9,38.6,31.6,79,61,37,29.74,29.51,15,1,15,0.00
2014-10-13,58.8,53.4,50.7,52.0,48.6,46.5,90,84,77,29.58,29.52,8,0,8,0.00
2014-10-14,66.9,54.2,47.5,48.7,43.1,36.2,87,69,38,29.76,29.53,8,1,8,0.00
2014-10-15,68.9,50.4,35.2,45.7,38.0,31.6,89,66,37,29.82,29.62,5,0,5,0.00
2014-10-16,75.0,54.5,33.8,48.2,40.9,30.9,91,64,37,29.62,29.33,12,2,12,0.00
2014-10-17,58.5,52.4,44.4,47.4,43.3,38.2,81,71,62,29.83,29.36,16,3,16,0.00
2014-10-18,58.3,47.7,36.1,42.0,37.4,31.8,85,68,47,30.00,29.82,4,0,4,0.00
2014-10-19,71.8,54.1,35.4,48.2,41.9,31.6,88,66,41,29.86,29.53,14,1,14,0.00
2014-10-20,66.6,53.2,42.6,46.2,41.1,36.3,86,65,43,29.84,29.63,7,1,8,0.00
2014-10-21,62.2,47.4,34.0,43.9,38.1,30.5,91,72,49,29.95,29.84,15,3,15,0.00
2014-10-22,64.2,51.3,39.7,45.7,40.5,35.2,85,68,50,29.96,29.77,15,3,15,0.00
2014-10-23,72.5,57.8,46.8,55.9,47.8,40.1,88,71,42,29.77,29.70,12,1,12,0.02
2014-10-24,73.6,57.1,45.1,57.0,48.6,40.4,87,75,55,29.73,29.57,8,1,8,0.00
2014-10-25,65.1,54.4,38.8,46.2,33.9,25.3,78,48,25,29.84,29.66,19,2,19,0.00
2014-10-26,67.3,48.7,29.8,39.0,29.7,25.0,84,53,25,29.81,29.38,18,3,18,0.00
2014-10-27,69.1,52.8,41.4,45.3,38.9,32.5,82,61,39,29.50,29.30,15,2,15,0.00
2014-10-28,49.1,42.3,38.1,40.8,36.1,32.0,88,79,67,29.75,29.48,24,6,24,0.00
2014-10-29,48.7,39.8,34.9,35.5,31.0,28.4,81,71,58,29.93,29.75,15,2,15,0.00
2014-10-30,51.4,41.8,33.6,39.3,32.7,14.8,83,71,44,30.13,29.79,17,2,17,0.00
2014-10-31,43.2,31.1,3.6,21.1,15.9,-7.2,70,54,36,30.33,30.14,13,2,13,0.00
2014-11-1,46.8,33.1,19.2,26.4,20.3,13.2,80,61,41,30.24,29.93,13,2,13,0.00
2014-11-2,61.5,46.1,34.3,34.1,27.6,20.3,60,49,35,29.93,29.63,16,2,16,0.00
2014-11-3,58.8,49.2,42.6,49.1,39.7,30.4,77,70,54,29.64,29.52,14,2,14,0.00
2014-11-4,55.4,44.0,32.2,37.0,31.6,25.5,77,62,43,29.79,29.60,22,5,22,0.00
2014-11-5,48.0,39.3,30.0,37.4,32.9,25.2,86,78,63,29.80,29.60,11,1,11,0.00
2014-11-6,46.2,37.6,31.3,32.5,29.8,26.1,87,74,54,30.05,29.79,12,2,12,0.00
2014-11-7,48.4,39.9,30.9,42.3,31.9,26.1,84,73,61,29.96,29.44,17,2,17,0.00
2014-11-8,45.0,39.0,34.9,33.0,25.7,22.4,72,59,44,29.83,29.56,19,4,19,0.00
2014-11-9,40.5,36.7,32.7,31.8,21.6,12.1,73,55,35,29.59,29.48,8,1,8,0.00
2014-11-10,32.9,28.6,26.1,26.6,22.6,12.3,87,79,43,29.69,29.35,16,5,16,0.00
2014-11-11,30.0,25.0,17.6,21.1,17.6,10.3,84,73,63,30.03,29.66,19,3,19,0.00
2014-11-12,27.3,20.4,12.7,18.5,13.8,7.5,83,76,64,30.10,30.02,15,2,15,0.00
2014-11-13,30.0,22.1,15.1,18.9,14.1,8.9,83,72,57,30.16,30.09,16,4,16,0.00
2014-11-14,27.7,14.9,4.3,15.0,7.0,-0.6,83,71,52,30.16,30.08,12,1,12,0.00
2014-11-15,30.6,17.4,2.5,21.6,11.6,-2.0,83,78,66,30.10,29.85,0,0,0,0.00
2014-11-16,22.8,15.2,6.1,18.4,8.0,1.8,85,73,54,29.85,29.62,13,1,13,0.00
2014-11-17,17.8,11.5,3.9,7.1,3.5,-1.5,81,70,55,29.79,29.66,19,4,19,0.00
2014-11-18,77.5,15.0,4.6,12.4,6.7,-1.5,79,70,54,29.82,29.51,10,1,10,0.00
2014-11-19,28.0,21.3,14.7,16.6,12.9,8.2,82,70,54,29.75,29.47,18,4,18,0.00
2014-11-20,21.9,11.8,2.8,8.3,3.3,-2.7,80,69,50,30.03,29.74,12,1,12,0.00
2014-11-21,35.2,21.1,1.9,28.4,13.4,-3.1,84,73,54,30.05,29.63,12,1,12,0.00
2014-11-22,44.4,36.0,32.7,42.8,33.0,28.4,94,89,84,29.64,29.25,8,1,8,0.00
2014-11-23,50.7,44.6,32.2,48.8,41.2,27.6,94,88,76,29.25,29.12,14,2,14,0.00
2014-11-24,32.2,22.0,13.8,27.6,16.3,7.9,85,78,74,29.71,29.09,16,5,16,0.00
2014-11-25,27.7,19.6,8.6,17.4,12.2,4.5,84,73,63,29.85,29.71,8,0,8,0.00
2014-11-26,33.6,24.0,11.1,25.0,17.2,0.3,86,75,61,30.17,29.76,8,0,8,0.00
2014-11-27,18.0,7.2,-4.7,3.4,-2.5,-10.6,77,64,51,30.30,30.02,5,0,5,0.00
2014-11-28,28.6,19.2,7.5,18.2,12.3,0.8,82,74,61,30.02,29.43,10,1,10,0.00
2014-11-29,44.4,29.4,20.1,32.6,23.3,16.1,89,78,61,29.46,29.17,10,0,10,0.08
2014-11-30,24.1,12.7,2.1,17.6,2.5,-5.9,77,63,50,30.25,29.46,10,2,10,0.00
2014-12-1,13.6,3.7,-2.7,-3.4,-8.3,-12.5,73,57,42,30.53,30.16,9,0,9,0.00
2014-12-2,27.1,17.7,4.6,13.5,8.1,-3.9,79,66,53,30.16,29.71,15,1,15,0.00
2014-12-3,26.2,15.8,9.1,12.8,7.7,3.0,81,71,52,30.09,29.77,15,1,15,0.00
2014-12-4,37.0,26.3,13.3,20.9,14.1,7.7,78,61,38,30.10,29.85,11,0,11,0.00
2014-12-5,36.5,30.5,20.5,30.0,25.4,17.2,88,81,70,30.18,29.84,2,0,2,0.00
2014-12-6,36.3,23.7,16.0,22.9,17.2,12.5,89,77,57,30.41,30.17,2,0,2,0.00
2014-12-7,39.0,31.6,23.9,31.2,25.8,18.9,90,79,69,30.29,29.78,9,1,10,0.00
2014-12-8,34.7,29.4,21.6,32.4,24.4,15.2,92,82,74,30.11,29.73,16,2,16,0.00
2014-12-9,27.7,21.0,14.2,19.0,15.2,8.9,89,78,68,30.26,30.10,7,0,7,0.00
2014-12-10,31.3,26.8,21.4,26.7,23.2,18.6,90,86,81,30.18,30.02,7,0,7,0.00
2014-12-11,33.3,30.2,28.0,30.2,26.9,24.6,91,87,83,30.04,29.95,6,0,6,0.00
2014-12-12,37.8,35.0,32.7,35.6,32.2,30.4,92,89,85,29.97,29.83,5,0,7,0.00
2014-12-13,50.0,43.0,34.5,46.1,40.7,32.4,95,92,86,29.84,29.68,10,0,10,0.00
2014-12-14,51.3,48.8,46.8,49.0,47.0,45.1,95,94,91,29.70,29.56,9,1,9,0.00
2014-12-15,50.4,42.1,29.5,49.0,40.5,26.4,95,94,88,29.64,29.44,10,0,10,0.24
2014-12-16,29.5,21.3,14.5,26.5,16.7,10.0,90,82,75,30.05,29.64,11,2,11,0.00
2014-12-17,24.6,15.3,8.2,15.0,9.6,4.9,87,78,65,30.10,30.04,6,0,6,0.00
2014-12-18,30.0,17.8,8.4,20.7,12.9,5.3,89,81,67,30.10,30.01,3,0,3,0.00
2014-12-19,31.6,27.2,21.7,27.1,23.0,16.6,88,84,81,30.04,29.91,7,0,7,0.00
2014-12-20,33.6,31.4,29.8,30.5,27.7,26.7,90,86,82,29.93,29.82,6,1,6,0.00
2014-12-21,38.1,35.2,31.1,36.3,33.0,27.4,94,92,86,29.82,29.47,13,1,13,0.08
2014-12-22,39.0,37.2,35.2,37.3,35.1,33.1,94,92,90,29.48,29.34,16,4,16,0.10
2014-12-23,36.7,35.2,34.0,33.5,32.5,31.6,92,90,86,29.63,29.36,8,1,8,0.02
2014-12-24,36.9,34.4,31.3,32.6,31.2,28.1,91,88,82,29.62,29.36,7,0,7,0.00
2014-12-25,37.9,32.8,29.8,32.8,29.2,26.7,92,87,80,29.62,29.36,9,0,9,0.00
2014-12-26,33.4,30.8,3.9,30.4,27.3,0.2,92,87,81,29.86,29.61,6,0,6,0.00
2014-12-27,29.3,21.0,9.7,25.2,15.8,4.5,90,80,66,29.90,29.76,10,0,10,0.00
2014-12-28,28.9,15.2,4.1,18.8,9.2,0.6,89,77,65,30.16,29.85,5,0,5,0.00
2014-12-29,12.7,5.9,-5.1,4.6,-2.6,-11.3,74,67,57,30.46,30.15,4,0,4,0.00
2014-12-30,8.4,-2.2,-8.5,-2.8,-9.5,-13.8,78,71,57,30.56,30.37,9,1,9,0.00
2014-12-31,19.0,4.4,-7.8,6.7,-3.0,-13.1,78,71,56,30.37,29.73,30,2,30,0.00
2015-1-1,38.5,22.3,10.6,25.7,14.7,3.7,82,73,57,29.95,29.60,11,1,11,0.00
2015-1-2,32.7,19.4,3.9,21.5,11.5,-2.8,79,71,59,29.99,29.73,11,0,11,0.00